Bellshill, United Kingdom
Current Conditions -  °F | °C
As of 12:50 AM on Saturday 20 Dec 2014 (Local Time) from EGPF Reporting Station
Moderate Rain Moderate Rain  
Wind Chill:   Ceiling: 2600
Heat Index:   Visibility: 3mi
Dew Point:   Wind: 20mph
Humidity: 81%   Direction: 280°W
Pressure: 29.83"   Gusts: 37mph
Location:  55.82°N, 4.03°W
Report Text: EGPF 200050Z AUTO 28017G32KT 5000 RA BKN026/// //////CB 06/03 Q1010
Loading
Personal Weather Stations






























Interactive Weather Map New forecast layout! Learn more

10-Day Weather Forecast

Advertisements
Track Severe Weather on mobile